Time;durP1;ratioP1;P1;durP2;ratioP2;P2;SDS_P1;SDS_P2;PMS_P1;PMS_P2;Temp;Humidity;BMP_temperature;BMP_pressure;BME280_temperature;BME280_humidity;BME280_pressure;Samples;Min_cycle;Max_cycle;Signal;HPM_P1;HPM_P2
2022/11/04 00:01:22;;;;;;;1.27;0.63;;;;;;;9.53;100.00;97791.50;5048695;28;20036;-70
2022/11/04 00:03:47;;;;;;;1.58;0.80;;;;;;;9.50;100.00;97776.56;5046031;28;20024;-71
2022/11/04 00:06:12;;;;;;;2.30;1.00;;;;;;;9.32;100.00;97734.16;5056862;28;20039;-71
2022/11/04 00:08:38;;;;;;;1.50;0.65;;;;;;;9.47;100.00;97776.19;5091115;22;20132;-57
2022/11/04 00:13:48;;;;;;;0.80;0.43;;;;;;;9.45;100.00;97795.31;5068526;28;20078;-57
2022/11/04 00:19:10;;;;;;;2.20;0.60;;;;;;;9.46;100.00;97793.44;5059181;28;20050;-57
2022/11/04 00:30:09;;;;;;;1.50;0.60;;;;;;;9.47;100.00;97804.03;5061793;28;21210;-57
2022/11/04 00:35:21;;;;;;;0.63;0.50;;;;;;;9.44;100.00;97821.47;5067002;28;20561;-57
2022/11/04 00:37:46;;;;;;;1.38;0.80;;;;;;;9.37;100.00;97799.09;5040244;28;20051;-57
2022/11/04 00:40:14;;;;;;;2.00;0.98;;;;;;;9.35;100.00;97820.13;5034513;28;20059;-57
2022/11/04 00:42:43;;;;;;;5.43;0.85;;;;;;;9.31;100.00;97831.56;5045818;28;20450;-57
2022/11/04 00:45:09;;;;;;;1.45;0.70;;;;;;;9.40;100.00;97833.75;5033477;28;20032;-57
2022/11/04 00:47:34;;;;;;;5.85;0.80;;;;;;;9.40;100.00;97825.66;5045371;28;20036;-57
2022/11/04 00:49:59;;;;;;;0.80;0.50;;;;;;;9.25;100.00;97808.13;5059347;22;20033;-76
2022/11/04 00:52:25;;;;;;;2.70;0.75;;;;;;;9.28;100.00;97807.72;5059310;28;20098;-76
2022/11/04 00:54:50;;;;;;;1.35;0.80;;;;;;;9.38;100.00;97819.69;5039871;28;20036;-77
2022/11/04 00:57:16;;;;;;;1.67;0.60;;;;;;;9.41;100.00;97832.72;5031675;28;20037;-77
2022/11/04 00:59:41;;;;;;;1.92;0.60;;;;;;;9.45;100.00;97808.81;5030880;28;20036;-76
2022/11/04 01:02:08;;;;;;;1.23;0.70;;;;;;;9.47;100.00;97808.59;5040397;28;20051;-76
2022/11/04 01:04:34;;;;;;;1.08;0.60;;;;;;;9.51;100.00;97801.69;5051104;28;20021;-77
2022/11/04 01:07:01;;;;;;;1.02;0.57;;;;;;;9.58;100.00;97811.38;5059466;28;20024;-77
2022/11/04 01:09:26;;;;;;;2.92;0.75;;;;;;;9.62;100.00;97828.00;5040016;28;20119;-77
2022/11/04 01:11:51;;;;;;;1.73;0.75;;;;;;;9.56;100.00;97794.59;5042824;28;20097;-76
2022/11/04 01:14:17;;;;;;;1.55;0.68;;;;;;;9.70;100.00;97811.50;5039619;28;20033;-76
2022/11/04 01:16:42;;;;;;;1.65;0.70;;;;;;;9.83;100.00;97822.19;5048371;28;20021;-77
2022/11/04 01:19:08;;;;;;;1.17;0.70;;;;;;;9.82;100.00;97817.00;5044025;28;20039;-77
2022/11/04 01:21:34;;;;;;;3.17;0.93;;;;;;;9.83;100.00;97822.19;5041041;28;20056;-77
2022/11/04 01:23:59;;;;;;;0.52;0.40;;;;;;;9.60;100.00;97797.69;5043596;28;20049;-76
2022/11/04 01:26:26;;;;;;;1.98;0.60;;;;;;;9.74;100.00;97820.81;5064534;28;20100;-77
2022/11/04 01:28:53;;;;;;;1.15;0.50;;;;;;;9.78;100.00;97823.91;5039358;28;20044;-77
2022/11/04 01:31:21;;;;;;;1.60;0.52;;;;;;;9.78;100.00;97819.31;5044226;28;20045;-77
2022/11/04 01:33:48;;;;;;;2.40;0.55;;;;;;;9.66;100.00;97807.59;5042056;28;20386;-77
2022/11/04 01:36:14;;;;;;;0.95;0.60;;;;;;;9.76;100.00;97802.50;5050282;28;20107;-76
2022/11/04 01:38:39;;;;;;;3.60;0.60;;;;;;;9.86;100.00;97816.34;5043070;28;20071;-77
2022/11/04 01:41:07;;;;;;;2.15;0.63;;;;;;;9.92;100.00;97821.88;5045276;28;20500;-77
2022/11/04 01:44:23;;;;;;;0.70;0.43;;;;;;;9.80;100.00;97802.91;5040600;28;20016;-77
2022/11/04 01:46:50;;;;;;;2.55;0.63;;;;;;;9.91;100.00;97825.66;5049537;28;20057;-77
2022/11/04 01:49:30;;;;;;;0.95;0.60;;;;;;;9.78;100.00;97830.13;5040740;28;20514;-76
2022/11/04 01:52:04;;;;;;;2.25;0.80;;;;;;;9.67;100.00;97822.75;5060290;28;20934;-76
2022/11/04 01:54:30;;;;;;;0.90;0.50;;;;;;;9.74;100.00;97823.50;5043895;28;20101;-76
2022/11/04 01:56:59;;;;;;;0.98;0.75;;;;;;;9.64;100.00;97807.81;5065171;28;20029;-78
2022/11/04 01:59:29;;;;;;;0.82;0.40;;;;;;;9.64;100.00;97817.78;5052781;28;20021;-77
2022/11/04 02:01:54;;;;;;;;;;;;;;;9.72;100.00;97819.38;5050103;28;20028;-78
2022/11/04 02:04:25;;;;;;;0.60;0.30;;;;;;;9.74;100.00;97814.56;5048003;28;19913;-78
2022/11/04 02:07:00;;;;;;;1.60;0.50;;;;;;;9.81;100.00;97818.06;5051148;28;20057;-77
2022/11/04 02:09:28;;;;;;;2.83;0.50;;;;;;;9.73;100.00;97802.94;5043072;28;20025;-77
2022/11/04 02:14:39;;;;;;;1.35;0.40;;;;;;;9.87;100.00;97823.38;5048748;28;20068;-77
2022/11/04 02:17:07;;;;;;;1.30;0.40;;;;;;;9.85;100.00;97824.66;5047655;28;20417;-77
2022/11/04 02:20:02;;;;;;;3.22;0.35;;;;;;;9.83;100.00;97819.47;5039439;28;20026;-77
2022/11/04 02:22:49;;;;;;;1.38;0.80;;;;;;;9.71;100.00;97793.41;5044411;28;20497;-78
2022/11/04 02:25:43;;;;;;;0.50;0.28;;;;;;;9.67;100.00;97784.94;5040212;28;20208;-77
2022/11/04 02:28:11;;;;;;;2.45;0.52;;;;;;;9.78;100.00;97796.91;5045085;28;20086;-77
2022/11/04 02:30:46;;;;;;;4.90;0.80;;;;;;;9.69;100.00;97784.72;5057376;28;20017;-77
2022/11/04 02:33:24;;;;;;;1.70;0.45;;;;;;;9.71;100.00;97788.03;5042149;28;20037;-77
2022/11/04 02:35:59;;;;;;;2.63;0.60;;;;;;;9.77;100.00;97806.88;5049990;28;20029;-76
2022/11/04 02:38:52;;;;;;;1.10;0.57;;;;;;;9.72;100.00;97819.38;5042591;28;20056;-77
2022/11/04 02:41:42;;;;;;;1.20;0.45;;;;;;;9.66;100.00;97830.00;5046563;28;20478;-77
2022/11/04 02:44:22;;;;;;;1.27;0.50;;;;;;;9.60;100.00;97811.19;5047101;28;20094;-77
2022/11/04 02:46:53;;;;;;;2.67;0.70;;;;;;;9.60;100.00;97821.97;5041612;28;20079;-77
2022/11/04 02:49:43;;;;;;;2.35;0.40;;;;;;;9.68;100.00;97835.19;5047497;28;20480;-77
2022/11/04 02:52:17;;;;;;;0.75;0.40;;;;;;;9.64;100.00;97834.84;5050751;28;20433;-77
2022/11/04 02:54:50;;;;;;;0.47;0.35;;;;;;;9.72;100.00;97830.19;5048288;28;20029;-77
2022/11/04 02:57:21;;;;;;;1.20;0.40;;;;;;;9.66;100.00;97808.41;5052467;28;20284;-77
2022/11/04 02:59:52;;;;;;;3.95;0.57;;;;;;;9.60;100.00;97812.00;5039524;28;20482;-77
2022/11/04 03:02:25;;;;;;;6.47;0.60;;;;;;;9.77;100.00;97822.22;5046531;28;20075;-77
2022/11/04 03:04:52;;;;;;;4.95;0.57;;;;;;;9.69;100.00;97823.34;5053272;28;20021;-77
2022/11/04 03:07:23;;;;;;;1.52;0.50;;;;;;;9.72;100.00;97831.03;5040313;28;20060;-77
2022/11/04 03:09:54;;;;;;;1.05;0.40;;;;;;;9.81;100.00;97856.69;5046018;28;20029;-78
2022/11/04 03:12:26;;;;;;;1.20;0.40;;;;;;;9.74;100.00;97828.91;5051339;28;20025;-77
2022/11/04 03:14:58;;;;;;;0.80;0.32;;;;;;;9.77;100.00;97843.84;5051647;28;20352;-77
2022/11/04 03:17:49;;;;;;;0.70;0.40;;;;;;;9.82;100.00;97854.81;5063227;28;20028;-77
2022/11/04 03:20:23;;;;;;;2.70;0.60;;;;;;;9.80;100.00;97843.41;5061524;28;20029;-77
2022/11/04 03:22:49;;;;;;;2.38;0.98;;;;;;;9.60;100.00;97809.31;5042883;28;20025;-77
2022/11/04 03:25:15;;;;;;;2.85;0.60;;;;;;;9.57;100.00;97800.81;5064776;28;20112;-76
2022/11/04 03:28:08;;;;;;;1.15;0.40;;;;;;;9.76;100.00;97853.00;5035997;28;20502;-77
2022/11/04 03:30:44;;;;;;;4.63;0.70;;;;;;;9.64;100.00;97832.13;5047938;28;20032;-77
2022/11/04 03:33:23;;;;;;;3.10;0.70;;;;;;;9.68;100.00;97866.78;5047135;28;20494;-76
2022/11/04 03:35:49;;;;;;;1.67;0.40;;;;;;;9.57;100.00;97868.34;5042563;28;20558;-77
2022/11/04 03:38:14;;;;;;;4.28;0.50;;;;;;;9.66;100.00;97883.19;5060661;28;20086;-77
2022/11/04 03:40:39;;;;;;;5.03;0.68;;;;;;;9.62;100.00;97874.72;5071533;28;20036;-77
2022/11/04 03:43:20;;;;;;;2.45;0.40;;;;;;;9.64;100.00;97872.63;5086605;28;20035;-78
2022/11/04 03:45:46;;;;;;;2.55;0.55;;;;;;;9.44;100.00;97851.19;5075881;28;20241;-78
2022/11/04 03:48:12;;;;;;;2.33;0.50;;;;;;;9.46;100.00;97883.38;5091968;28;20051;-78
2022/11/04 03:50:48;;;;;;;3.85;0.50;;;;;;;9.39;100.00;97894.19;5069447;28;20032;-77
2022/11/04 03:53:20;;;;;;;3.13;0.47;;;;;;;9.34;100.00;97875.13;5071228;28;20032;-77
2022/11/04 03:56:24;;;;;;;3.15;0.68;;;;;;;9.35;100.00;97887.59;5091080;28;20020;-77
2022/11/04 03:59:14;;;;;;;2.25;0.40;;;;;;;9.30;100.00;97898.22;5046364;28;20851;-77
2022/11/04 04:01:45;;;;;;;2.08;0.43;;;;;;;9.26;100.00;97902.38;5039758;28;20083;-77
2022/11/04 04:04:14;;;;;;;2.88;0.70;;;;;;;9.11;100.00;97888.34;5058157;28;20032;-78
2022/11/04 04:06:42;;;;;;;1.63;0.40;;;;;;;9.13;100.00;97902.47;5059207;28;20433;-77
2022/11/04 04:09:17;;;;;;;5.25;0.65;;;;;;;9.11;100.00;97910.78;5036623;28;20025;-77
2022/11/04 04:12:20;;;;;;;1.02;0.30;;;;;;;9.11;100.00;97905.38;5047617;28;20025;-77
2022/11/04 04:14:50;;;;;;;3.60;0.70;;;;;;;9.03;100.00;97894.00;5036165;28;20116;-76
2022/11/04 04:17:15;;;;;;;2.80;0.40;;;;;;;9.00;100.00;97904.19;5056689;28;20025;-77
2022/11/04 04:19:45;;;;;;;4.00;0.80;;;;;;;8.75;100.00;97860.09;5045774;28;20020;-77
2022/11/04 04:22:17;;;;;;;22.33;0.90;;;;;;;8.85;100.00;97895.53;5050424;28;20028;-77
2022/11/04 04:27:31;;;;;;;1.63;0.60;;;;;;;8.75;100.00;97889.78;5053778;28;20032;-78
2022/11/04 04:30:07;;;;;;;2.53;0.47;;;;;;;8.77;100.00;97899.31;5044737;28;20417;-77
2022/11/04 04:32:38;;;;;;;4.10;0.50;;;;;;;8.69;100.00;97890.63;5045910;28;20029;-75
2022/11/04 04:37:54;;;;;;;2.05;0.65;;;;;;;8.65;100.00;97897.53;5050018;28;20090;-73
2022/11/04 04:45:58;;;;;;;1.73;0.52;;;;;;;8.66;100.00;97902.69;5052144;28;20146;-74
2022/11/04 04:48:23;;;;;;;2.13;0.50;;;;;;;8.63;100.00;97907.69;5061732;28;20471;-73
2022/11/04 04:50:51;;;;;;;5.25;0.88;;;;;;;8.50;100.00;97893.19;5046438;28;20031;-71
2022/11/04 04:53:17;;;;;;;1.98;0.55;;;;;;;8.39;100.00;97901.09;5049083;28;20100;-73
2022/11/04 04:55:42;;;;;;;1.23;0.50;;;;;;;8.40;100.00;97906.28;5043693;28;20108;-71
2022/11/04 04:58:08;;;;;;;3.17;0.50;;;;;;;8.26;100.00;97893.88;5040924;28;20040;-73
2022/11/04 05:00:34;;;;;;;2.90;0.55;;;;;;;8.24;100.00;97885.16;5048389;28;20023;-71
2022/11/04 05:02:59;;;;;;;1.42;0.70;;;;;;;8.23;100.00;97895.13;5045388;28;20017;-74
2022/11/04 05:05:24;;;;;;;3.75;0.75;;;;;;;8.11;100.00;97878.75;5066660;28;20020;-75
2022/11/04 05:07:50;;;;;;;2.22;0.57;;;;;;;8.03;100.00;97876.28;5048132;28;20025;-74
2022/11/04 05:10:17;;;;;;;3.65;0.63;;;;;;;7.97;100.00;97865.53;5057217;28;20021;-76
2022/11/04 05:15:28;;;;;;;9.18;1.50;;;;;;;8.17;100.00;97850.13;5064895;28;20128;-74
2022/11/04 05:17:55;;;;;;;10.20;1.33;;;;;;;8.00;100.00;97822.00;5075739;28;20021;-74
2022/11/04 05:20:21;;;;;;;5.75;1.23;;;;;;;7.95;100.00;97830.72;5059638;28;20021;-74
2022/11/04 05:22:46;;;;;;;5.78;1.20;;;;;;;7.80;100.00;97819.34;5060964;28;20047;-73
2022/11/04 05:25:11;;;;;;;4.20;1.00;;;;;;;7.72;100.00;97820.41;5048472;28;20565;-74
2022/11/04 05:27:36;;;;;;;5.05;1.00;;;;;;;7.77;100.00;97836.75;5055954;28;20070;-75
2022/11/04 05:30:02;;;;;;;3.20;0.70;;;;;;;7.74;100.00;97841.75;5063066;28;20493;-74
2022/11/04 05:32:30;;;;;;;5.13;1.55;;;;;;;7.72;100.00;97831.16;5058477;28;20621;-73
2022/11/04 05:34:55;;;;;;;7.93;1.35;;;;;;;7.75;100.00;97843.38;5049930;28;20053;-75
2022/11/04 05:37:20;;;;;;;5.18;1.42;;;;;;;7.71;100.00;97834.91;5054986;28;20064;-74
2022/11/04 05:39:46;;;;;;;5.30;1.08;;;;;;;7.56;100.00;97832.41;5052260;28;20025;-75
2022/11/04 05:42:11;;;;;;;2.22;1.08;;;;;;;7.63;100.00;97852.09;5041527;28;20040;-73
2022/11/04 05:44:36;;;;;;;4.50;1.45;;;;;;;7.54;100.00;97849.81;5050355;28;20474;-73
2022/11/04 05:47:01;;;;;;;5.45;1.80;;;;;;;7.68;100.00;97846.09;5054728;28;20080;-72
2022/11/04 05:49:27;;;;;;;9.60;1.55;;;;;;;7.80;100.00;97857.03;5050105;28;20021;-73
2022/11/04 05:51:52;;;;;;;4.40;1.65;;;;;;;7.80;100.00;97854.34;5067889;28;20036;-73
2022/11/04 05:54:17;;;;;;;4.10;1.52;;;;;;;7.84;100.00;97867.19;5043368;28;20298;-74
2022/11/04 05:56:43;;;;;;;4.15;1.60;;;;;;;7.56;100.00;97842.38;5043539;28;20021;-71
2022/11/04 05:59:08;;;;;;;2.28;1.10;;;;;;;7.43;100.00;97854.78;5063427;28;21853;-74
2022/11/04 06:01:36;;;;;;;3.80;1.23;;;;;;;7.48;100.00;97867.63;5052906;28;20025;-72
2022/11/04 06:04:03;;;;;;;5.47;1.00;;;;;;;7.38;100.00;97851.88;5042901;28;20040;-75
2022/11/04 06:06:31;;;;;;;4.35;1.13;;;;;;;7.29;100.00;97852.31;5067969;28;20028;-74
2022/11/04 06:08:57;;;;;;;10.60;1.30;;;;;;;7.29;100.00;97849.63;5046053;28;20079;-74
2022/11/04 06:11:24;;;;;;;2.65;1.02;;;;;;;7.22;100.00;97855.81;5041217;28;20025;-69
2022/11/04 06:13:50;;;;;;;4.35;1.90;;;;;;;7.16;100.00;97848.56;5045879;28;20036;-71
2022/11/04 06:16:16;;;;;;;4.10;1.35;;;;;;;7.22;100.00;97863.88;5044925;28;20037;-72
2022/11/04 06:18:42;;;;;;;4.05;1.85;;;;;;;7.17;100.00;97870.91;5051972;28;20094;-74
2022/11/04 06:21:13;;;;;;;4.50;2.40;;;;;;;7.12;100.00;97874.19;5050696;28;20024;-72
2022/11/04 06:23:39;;;;;;;5.50;2.38;;;;;;;7.16;100.00;97875.47;5052446;28;20053;-71
2022/11/04 06:26:05;;;;;;;4.07;1.30;;;;;;;7.17;100.00;97871.72;5046118;28;20657;-76
2022/11/04 06:28:31;;;;;;;5.40;1.83;;;;;;;7.15;100.00;97879.19;5053795;28;20017;-75
2022/11/04 06:30:57;;;;;;;7.70;1.90;;;;;;;7.29;100.00;97890.78;5051851;28;20059;-72
2022/11/04 06:33:23;;;;;;;9.23;1.70;;;;;;;7.28;100.00;97889.13;5045876;28;20443;-70
2022/11/04 06:35:48;;;;;;;7.93;2.45;;;;;;;7.24;100.00;97899.47;5043443;28;20108;-74
2022/11/04 06:38:13;;;;;;;3.75;1.70;;;;;;;7.16;100.00;97902.34;5047014;28;20026;-75
2022/11/04 06:40:39;;;;;;;10.73;2.30;;;;;;;7.22;100.00;97922.22;5041659;28;20108;-74
2022/11/04 06:43:04;;;;;;;10.43;1.77;;;;;;;7.23;100.00;97922.03;5046640;28;20017;-71
2022/11/04 06:45:29;;;;;;;8.85;2.28;;;;;;;7.39;100.00;97890.41;5057016;28;20025;-75
2022/11/04 06:47:55;;;;;;;7.40;1.90;;;;;;;7.53;100.00;97892.06;5052051;28;20024;-74
2022/11/04 06:50:20;;;;;;;5.63;1.60;;;;;;;7.52;100.00;97893.09;5050238;28;20112;-74
2022/11/04 06:52:46;;;;;;;10.07;2.33;;;;;;;7.57;100.00;97909.47;5048744;28;20390;-73
2022/11/04 06:55:11;;;;;;;5.97;1.95;;;;;;;7.56;100.00;97897.03;5041884;28;20052;-71
2022/11/04 06:57:36;;;;;;;3.47;1.42;;;;;;;7.63;100.00;97916.72;5049690;28;20029;-74
2022/11/04 07:00:03;;;;;;;6.88;1.92;;;;;;;7.68;100.00;97916.91;5059930;28;20024;-70
2022/11/04 07:02:28;;;;;;;5.57;2.75;;;;;;;7.77;100.00;97924.78;5045381;28;20030;-71
2022/11/04 07:04:53;;;;;;;13.68;5.97;;;;;;;7.77;100.00;97922.09;5048437;28;20079;-76
2022/11/04 07:07:19;;;;;;;9.38;4.93;;;;;;;7.78;100.00;97903.06;5051839;28;20059;-75
2022/11/04 07:09:44;;;;;;;6.22;3.50;;;;;;;7.91;100.00;97904.88;5045905;28;20055;-75
2022/11/04 07:12:09;;;;;;;9.95;3.40;;;;;;;8.03;100.00;97903.22;5052772;28;20481;-73
2022/11/04 07:14:34;;;;;;;5.20;2.08;;;;;;;8.13;100.00;97900.94;5053471;28;20039;-75
2022/11/04 07:17:00;;;;;;;6.68;1.83;;;;;;;8.21;100.00;97901.75;5047364;28;20020;-72
2022/11/04 07:19:26;;;;;;;3.50;1.77;;;;;;;8.16;100.00;97891.59;5046260;28;20053;-71
2022/11/04 07:21:51;;;;;;;3.38;1.45;;;;;;;8.22;100.00;97898.00;5053112;28;21020;-75
2022/11/04 07:24:16;;;;;;;6.55;1.42;;;;;;;8.14;100.00;97888.28;5045015;28;20027;-70
2022/11/04 07:26:42;;;;;;;3.97;1.50;;;;;;;8.11;100.00;97875.22;5045571;28;20060;-69
2022/11/04 07:29:09;;;;;;;4.20;1.95;;;;;;;8.16;100.00;97878.13;5046361;28;20028;-69
2022/11/04 07:31:35;;;;;;;5.18;1.92;;;;;;;8.09;100.00;97880.81;5052760;28;20025;-69
2022/11/04 07:34:01;;;;;;;4.38;1.63;;;;;;;7.99;100.00;97871.50;5045980;28;20584;-69
2022/11/04 07:36:27;;;;;;;4.05;1.55;;;;;;;8.02;100.00;97876.50;5042476;28;20021;-69
2022/11/04 07:38:53;;;;;;;4.55;1.65;;;;;;;7.99;100.00;97874.22;5051233;28;20029;-70
2022/11/04 07:41:19;;;;;;;4.97;2.33;;;;;;;8.07;100.00;97874.03;5049562;28;20032;-69
2022/11/04 07:43:51;;;;;;;6.53;1.88;;;;;;;8.16;100.00;97875.44;5044615;28;20025;-69
2022/11/04 07:46:17;;;;;;;3.45;1.27;;;;;;;8.24;100.00;97874.38;5048559;28;20037;-69
2022/11/04 07:48:43;;;;;;;7.25;1.50;;;;;;;8.30;100.00;97873.53;5053406;28;20021;-69
2022/11/04 07:51:11;;;;;;;2.83;1.38;;;;;;;8.39;100.00;97872.31;5053351;28;20033;-70
2022/11/04 07:53:37;;;;;;;4.18;1.70;;;;;;;8.55;100.00;97865.59;5052999;28;20071;-70
2022/11/04 07:56:07;;;;;;;4.43;1.60;;;;;;;8.61;100.00;97863.91;5049613;28;20492;-70
2022/11/04 07:58:33;;;;;;;11.75;1.60;;;;;;;8.82;100.00;97854.69;5052043;28;20033;-70
2022/11/04 08:01:11;;;;;;;7.05;2.35;;;;;;;8.84;100.00;97861.53;5057964;28;20382;-70
2022/11/04 08:03:37;;;;;;;4.18;1.80;;;;;;;8.93;100.00;97854.00;5045707;28;20162;-69
2022/11/04 08:06:04;;;;;;;8.60;4.30;;;;;;;9.00;100.00;97844.84;5058869;28;20080;-69
2022/11/04 08:08:30;;;;;;;8.70;4.00;;;;;;;9.06;100.00;97853.09;5055721;28;20029;-69
2022/11/04 08:10:59;;;;;;;6.78;3.17;;;;;;;9.11;100.00;97845.19;5051391;28;20501;-69
2022/11/04 08:13:30;;;;;;;4.05;1.52;;;;;;;9.19;100.00;97848.44;5040982;28;20022;-69
2022/11/04 08:15:56;;;;;;;4.30;1.65;;;;;;;9.25;100.00;97849.47;5065508;28;20390;-69
2022/11/04 08:18:22;;;;;;;7.07;1.70;;;;;;;9.35;100.00;97847.13;5050218;28;20434;-70
2022/11/04 08:20:49;;;;;;;4.72;1.52;;;;;;;9.65;100.00;97841.06;5047817;28;20104;-69
2022/11/04 08:23:15;;;;;;;4.55;1.60;;;;;;;9.61;100.00;97843.34;5054493;28;20025;-69
2022/11/04 08:25:41;;;;;;;5.05;1.77;;;;;;;9.81;100.00;97854.00;5060318;28;20021;-70
2022/11/04 08:28:06;;;;;;;3.70;1.50;;;;;;;10.01;100.00;97853.00;5079383;28;20502;-69
2022/11/04 08:30:32;;;;;;;3.55;1.42;;;;;;;10.12;100.00;97857.66;5054358;28;20471;-69
2022/11/04 08:32:58;;;;;;;5.05;1.40;;;;;;;10.47;100.00;97846.28;5049728;28;20088;-70
2022/11/04 08:35:24;;;;;;;4.13;1.75;;;;;;;10.79;100.00;97829.84;5038705;28;20052;-70
2022/11/04 08:37:50;;;;;;;4.38;1.30;;;;;;;11.16;100.00;97836.84;5045999;28;20097;-69
2022/11/04 08:40:15;;;;;;;2.83;0.85;;;;;;;11.46;100.00;97833.25;5057670;28;21638;-69
2022/11/04 08:42:41;;;;;;;5.82;1.30;;;;;;;11.43;100.00;97847.25;5042659;28;20032;-69
2022/11/04 08:45:06;;;;;;;5.10;1.00;;;;;;;11.44;100.00;97856.19;5044126;28;20036;-69
2022/11/04 08:47:32;;;;;;;5.32;1.00;;;;;;;11.22;100.00;97862.16;5047599;28;20036;-69
2022/11/04 08:49:57;;;;;;;6.07;1.05;;;;;;;11.18;100.00;97853.66;5047628;28;20020;-69
2022/11/04 08:52:23;;;;;;;5.90;1.27;;;;;;;11.39;100.00;97854.19;5046012;28;20143;-69
2022/11/04 08:54:48;;;;;;;3.63;1.20;;;;;;;11.63;100.00;97857.75;5056075;28;20036;-70
2022/11/04 08:57:14;;;;;;;8.10;1.40;;;;;;;11.86;100.00;97848.88;5063765;28;20036;-69
2022/11/04 08:59:39;;;;;;;5.38;1.00;;;;;;;11.81;100.00;97840.56;5057866;28;20111;-69
2022/11/04 09:02:04;;;;;;;4.85;0.90;;;;;;;11.97;100.00;97850.78;5050842;28;20108;-69
2022/11/04 09:04:29;;;;;;;1.98;1.10;;;;;;;12.24;100.00;97848.38;5055676;28;20025;-69
2022/11/04 09:06:55;;;;;;;2.53;1.20;;;;;;;12.32;100.00;97832.81;5059759;28;20604;-70
2022/11/04 09:09:21;;;;;;;2.72;1.10;;;;;;;12.43;100.00;97843.63;5048197;28;20053;-70
2022/11/04 09:11:46;;;;;;;6.50;1.15;;;;;;;12.29;100.00;97853.09;5051939;28;20111;-69
2022/11/04 09:14:12;;;;;;;2.67;1.00;;;;;;;12.07;100.00;97855.59;5048551;28;20087;-69
2022/11/04 09:16:39;;;;;;;1.88;0.70;;;;;;;12.00;100.00;97857.59;5051413;28;20021;-69
2022/11/04 09:19:05;;;;;;;3.75;0.82;;;;;;;11.83;100.00;97854.72;5052180;28;20067;-69
2022/11/04 09:21:30;;;;;;;1.67;0.73;;;;;;;12.03;100.00;97868.78;5050180;28;20056;-69
2022/11/04 09:23:56;;;;;;;2.88;1.25;;;;;;;11.91;100.00;97865.25;5051703;28;20091;-69
2022/11/04 09:26:23;;;;;;;3.80;1.30;;;;;;;11.91;100.00;97859.81;5065862;28;20087;-69
2022/11/04 09:28:55;;;;;;;2.35;1.35;;;;;;;12.08;100.00;97865.38;5045357;28;20024;-69
2022/11/04 09:31:22;;;;;;;3.22;1.23;;;;;;;12.09;100.00;97871.63;5041987;28;20028;-71
2022/11/04 09:33:49;;;;;;;1.85;1.00;;;;;;;12.19;100.00;97866.44;5045528;28;20475;-75
2022/11/04 09:36:15;;;;;;;3.83;1.00;;;;;;;12.11;100.00;97862.19;5041550;28;20546;-73
2022/11/04 09:38:41;;;;;;;4.85;0.80;;;;;;;11.87;100.00;97853.25;5039975;28;20119;-75
2022/11/04 09:41:24;;;;;;;6.43;1.55;;;;;;;12.04;100.00;97878.56;5046495;28;20047;-72
2022/11/04 09:44:16;;;;;;;5.88;1.25;;;;;;;12.08;100.00;97878.94;5037727;28;20030;-72
2022/11/04 09:46:44;;;;;;;2.42;1.30;;;;;;;12.01;100.00;97861.97;5046762;28;20083;-71
2022/11/04 09:49:12;;;;;;;2.13;1.13;;;;;;;12.19;100.00;97882.72;5059505;28;20363;-71
2022/11/04 09:51:40;;;;;;;3.83;1.20;;;;;;;12.34;100.00;97877.63;5053647;28;20029;-71
2022/11/04 09:54:21;;;;;;;5.43;1.20;;;;;;;12.60;100.00;97872.72;5044971;28;20093;-76
2022/11/04 09:56:50;;;;;;;3.20;1.35;;;;;;;12.83;100.00;97872.66;5044300;28;20025;-80
2022/11/04 09:59:22;;;;;;;2.77;1.30;;;;;;;13.24;100.00;97862.59;5054265;28;20025;-72
2022/11/04 10:02:02;;;;;;;4.75;1.35;;;;;;;13.47;100.00;97863.59;5046944;28;20034;-71
2022/11/04 10:04:53;;;;;;;2.70;0.90;;;;;;;13.84;100.00;97853.06;5053683;28;20036;-69
2022/11/04 10:08:02;;;;;;;3.53;1.10;;;;;;;14.36;100.00;97833.69;5051355;28;20075;-76
2022/11/04 10:10:53;;;;;;;7.30;1.33;;;;;;;14.67;100.00;97853.16;5061525;28;20394;-75
2022/11/04 10:13:33;;;;;;;3.80;0.70;;;;;;;14.91;100.00;97851.03;5045466;28;20038;-74
2022/11/04 10:16:20;;;;;;;7.43;0.90;;;;;;;14.44;100.00;97857.75;5049260;28;20036;-72
2022/11/04 10:19:04;;;;;;;6.15;1.20;;;;;;;14.18;100.00;97851.13;5050829;28;20024;-70
2022/11/04 10:21:35;;;;;;;4.70;1.30;;;;;;;14.24;100.00;97841.97;5054990;28;20090;-72
2022/11/04 10:24:22;;;;;;;2.40;1.02;;;;;;;15.86;100.00;97835.06;5053922;28;20119;-74
2022/11/04 10:27:03;;;;;;;2.28;0.80;;;;;;;16.83;93.07;97841.09;5037122;28;20025;-72
2022/11/04 10:29:41;;;;;;;3.28;1.02;;;;;;;16.68;93.29;97854.66;5056697;28;20033;-69
2022/11/04 10:32:39;;;;;;;2.42;1.08;;;;;;;16.25;93.28;97848.44;5045384;28;20043;-71
2022/11/04 10:35:17;;;;;;;10.10;0.90;;;;;;;15.32;98.10;97841.38;5042120;28;20020;-69
2022/11/04 10:37:43;;;;;;;3.42;0.80;;;;;;;14.35;100.00;97851.09;5041319;28;20033;-75
2022/11/04 10:40:19;;;;;;;3.30;0.88;;;;;;;14.15;100.00;97846.19;5049127;28;20033;-68
2022/11/04 10:42:44;;;;;;;5.20;0.80;;;;;;;14.07;100.00;97835.75;5048145;28;20062;-72
2022/11/04 10:45:11;;;;;;;4.15;0.80;;;;;;;14.09;100.00;97835.47;5042379;28;20490;-77
2022/11/04 10:47:50;;;;;;;3.47;0.80;;;;;;;13.86;100.00;97833.78;5053649;28;20024;-72
2022/11/04 10:50:23;;;;;;;4.57;0.98;;;;;;;13.91;100.00;97823.81;5051648;28;20084;-74
2022/11/04 10:52:49;;;;;;;4.63;1.08;;;;;;;14.48;100.00;97825.41;5054080;28;20139;-74
2022/11/04 10:55:25;;;;;;;3.67;0.70;;;;;;;15.20;100.00;97823.56;5049136;28;20124;-75
2022/11/04 10:57:56;;;;;;;2.63;1.08;;;;;;;15.92;94.27;97816.81;5048943;28;20025;-72
2022/11/04 11:00:39;;;;;;;4.18;1.17;;;;;;;15.90;91.32;97822.56;5060724;28;20067;-70
2022/11/04 11:03:21;;;;;;;2.22;0.70;;;;;;;16.23;85.77;97822.47;5044642;28;20668;-71
2022/11/04 11:05:48;;;;;;;4.55;0.80;;;;;;;16.55;84.60;97816.91;5043493;28;20254;-72
2022/11/04 11:08:27;;;;;;;2.97;0.98;;;;;;;16.39;86.12;97822.28;5049943;28;20021;-73
2022/11/04 11:10:52;;;;;;;5.80;0.80;;;;;;;16.99;78.88;97819.28;5053946;28;20024;-76
2022/11/04 11:13:27;;;;;;;4.15;1.00;;;;;;;17.67;72.55;97806.25;5047435;28;20026;-75
2022/11/04 11:16:07;;;;;;;2.95;0.77;;;;;;;17.62;70.49;97808.97;5058738;28;20025;-74
2022/11/04 11:18:32;;;;;;;1.70;0.90;;;;;;;16.74;74.57;97819.97;5055692;28;20025;-73
2022/11/04 11:21:22;;;;;;;3.40;1.00;;;;;;;16.35;79.14;97818.47;5071328;28;20054;-76
2022/11/04 11:23:50;;;;;;;6.75;1.15;;;;;;;16.39;77.85;97808.63;5074175;28;20025;-75
2022/11/04 11:26:19;;;;;;;2.45;0.93;;;;;;;16.77;77.41;97809.38;5069706;28;20040;-75
2022/11/04 11:28:51;;;;;;;3.70;0.90;;;;;;;16.77;77.11;97790.28;5053835;28;20028;-72
2022/11/04 11:31:23;;;;;;;3.75;0.90;;;;;;;15.97;82.21;97805.94;5054970;28;20389;-73
2022/11/04 11:33:54;;;;;;;4.10;0.80;;;;;;;15.13;87.12;97796.50;5054863;28;20020;-75
2022/11/04 11:36:25;;;;;;;1.75;1.00;;;;;;;14.03;100.00;97793.78;5052821;28;21299;-71
2022/11/04 11:39:02;;;;;;;2.45;0.95;;;;;;;14.05;100.00;97769.91;5048698;28;20044;-73
2022/11/04 11:41:31;;;;;;;2.55;0.80;;;;;;;14.27;100.00;97788.13;5051025;28;20021;-72
2022/11/04 11:44:01;;;;;;;2.40;1.20;;;;;;;14.28;100.00;97787.03;5043213;28;20167;-76
2022/11/04 11:46:36;;;;;;;4.90;1.50;;;;;;;13.63;100.00;97775.00;5050517;28;20031;-74
2022/11/04 11:49:04;;;;;;;9.45;1.75;;;;;;;13.71;100.00;97791.69;5042798;28;20039;-73
2022/11/04 11:51:37;;;;;;;3.55;0.80;;;;;;;13.44;100.00;97786.13;5048271;28;20024;-74
2022/11/04 11:54:22;;;;;;;8.90;1.13;;;;;;;13.38;100.00;97777.03;5056732;28;20029;-75
2022/11/04 11:56:56;;;;;;;5.85;1.00;;;;;;;13.40;100.00;97784.13;5045750;28;20109;-74
2022/11/04 11:59:29;;;;;;;5.28;0.80;;;;;;;13.34;100.00;97770.47;5041920;28;20035;-76
2022/11/04 12:02:15;;;;;;;2.65;1.02;;;;;;;13.51;100.00;97775.88;5036342;28;20438;-75
2022/11/04 12:04:40;;;;;;;1.85;0.75;;;;;;;13.65;100.00;97738.34;5050792;28;20063;-75
2022/11/04 12:07:14;;;;;;;3.15;0.80;;;;;;;13.91;100.00;97777.59;5044082;28;20049;-73
2022/11/04 12:09:53;;;;;;;3.78;0.80;;;;;;;14.07;100.00;97775.91;5048907;28;20036;-74
2022/11/04 12:12:21;;;;;;;1.77;0.87;;;;;;;13.86;100.00;97771.25;5047031;28;20060;-74
2022/11/04 12:15:01;;;;;;;3.58;0.75;;;;;;;15.00;100.00;97773.22;5046920;28;20637;-73
2022/11/04 12:17:52;;;;;;;2.03;1.00;;;;;;;16.14;89.83;97760.22;5047731;28;20075;-75
2022/11/04 12:20:27;;;;;;;;;;;;;;;16.69;81.86;97779.84;5070744;28;20033;-72